createdAt,value
2023-05-21T00:00:12.665Z,6.15
2023-05-21T00:02:59.162Z,4.70
2023-05-21T00:05:46.957Z,8.65
2023-05-21T00:08:34.077Z,4.70
2023-05-21T00:11:19.548Z,7.18
2023-05-21T00:14:04.798Z,4.57
2023-05-21T00:16:50.277Z,6.75
2023-05-21T00:19:36.026Z,5.88
2023-05-21T00:22:21.495Z,5.53
2023-05-21T00:25:07.305Z,4.68
2023-05-21T00:27:52.664Z,5.13
2023-05-21T00:30:38.139Z,5.82
2023-05-21T00:33:26.305Z,8.60
2023-05-21T00:36:14.286Z,4.55
2023-05-21T00:38:59.603Z,6.45
2023-05-21T00:41:46.621Z,6.38
2023-05-21T00:44:35.341Z,5.72
2023-05-21T00:47:21.658Z,4.30
2023-05-21T00:50:08.522Z,4.50
2023-05-21T00:52:54.310Z,5.57
2023-05-21T00:55:40.554Z,6.25
2023-05-21T00:58:25.757Z,7.20
2023-05-21T01:01:13.881Z,4.97
2023-05-21T01:04:01.815Z,5.72
2023-05-21T01:06:47.462Z,4.40
2023-05-21T01:09:32.997Z,4.67
2023-05-21T01:12:20.549Z,4.65
2023-05-21T01:15:07.132Z,5.20
2023-05-21T01:17:53.170Z,4.20
2023-05-21T01:20:39.337Z,7.18
2023-05-21T01:23:25.200Z,6.47
2023-05-21T01:26:12.905Z,4.90
2023-05-21T01:28:58.834Z,4.80
2023-05-21T01:32:13.640Z,4.57
2023-05-21T01:35:09.776Z,6.75
2023-05-21T01:38:12.138Z,5.03
2023-05-21T01:43:56.169Z,3.97
2023-05-21T01:46:41.478Z,4.60
2023-05-21T01:49:27.187Z,4.45
2023-05-21T01:52:12.896Z,4.45
2023-05-21T01:54:58.239Z,6.22
2023-05-21T01:57:43.823Z,4.82
2023-05-21T02:00:29.598Z,5.80
2023-05-21T02:03:15.163Z,5.25
2023-05-21T02:06:00.415Z,5.22
2023-05-21T02:08:46.225Z,5.55
2023-05-21T02:11:32.082Z,5.40
2023-05-21T02:14:17.442Z,5.72
2023-05-21T02:17:03.276Z,5.28
2023-05-21T02:19:48.672Z,6.50
2023-05-21T02:22:34.244Z,6.13
2023-05-21T02:25:22.599Z,5.80
2023-05-21T02:28:08.246Z,4.70
2023-05-21T02:30:54.087Z,7.10
2023-05-21T02:33:42.760Z,5.22
2023-05-21T02:36:28.737Z,5.85
2023-05-21T02:39:15.542Z,4.65
2023-05-21T02:42:00.972Z,5.63
2023-05-21T02:44:46.225Z,6.47
2023-05-21T02:47:31.599Z,5.95
2023-05-21T02:50:17.016Z,7.45
2023-05-21T02:53:07.813Z,6.13
2023-05-21T02:55:53.932Z,7.13
2023-05-21T02:58:39.269Z,5.32
2023-05-21T03:01:24.750Z,7.10
2023-05-21T03:04:10.385Z,5.40
2023-05-21T03:06:57.534Z,6.10
2023-05-21T03:09:42.862Z,6.72
2023-05-21T03:12:28.860Z,6.45
2023-05-21T03:15:16.808Z,8.45
2023-05-21T03:18:03.115Z,5.38
2023-05-21T03:20:48.981Z,6.75
2023-05-21T03:23:34.930Z,5.90
2023-05-21T03:26:22.232Z,5.72
2023-05-21T03:29:07.966Z,6.70
2023-05-21T03:31:55.528Z,4.90
2023-05-21T03:34:41.182Z,7.38
2023-05-21T03:37:26.776Z,4.75
2023-05-21T03:40:12.644Z,6.88
2023-05-21T03:42:58.060Z,5.95
2023-05-21T03:45:44.584Z,5.10
2023-05-21T03:48:50.085Z,4.53
2023-05-21T03:51:39.550Z,6.25
2023-05-21T03:54:27.557Z,5.15
2023-05-21T03:57:17.153Z,5.53
2023-05-21T04:00:05.519Z,7.45
2023-05-21T04:03:01.647Z,4.95
2023-05-21T04:05:47.224Z,4.95
2023-05-21T04:08:32.614Z,5.18
2023-05-21T04:11:17.966Z,7.18
2023-05-21T04:14:03.680Z,5.93
2023-05-21T04:16:49.886Z,6.80
2023-05-21T04:19:35.339Z,6.38
2023-05-21T04:22:23.344Z,5.22
2023-05-21T04:25:09.615Z,7.43
2023-05-21T04:27:56.976Z,5.53
2023-05-21T04:30:42.532Z,5.60
2023-05-21T04:33:28.661Z,6.78
2023-05-21T04:36:13.638Z,5.85
2023-05-21T04:38:59.016Z,8.15
2023-05-21T04:41:44.843Z,7.13
2023-05-21T04:44:30.453Z,7.22
2023-05-21T04:47:21.159Z,8.57
2023-05-21T04:50:07.368Z,6.93
2023-05-21T04:52:54.674Z,7.00
2023-05-21T04:55:41.112Z,6.82
2023-05-21T04:58:27.976Z,7.43
2023-05-21T05:01:14.325Z,7.50
2023-05-21T05:03:59.703Z,7.70
2023-05-21T05:06:45.088Z,6.72
2023-05-21T05:09:31.697Z,8.95
2023-05-21T05:12:17.148Z,8.32
2023-05-21T05:15:02.625Z,7.15
2023-05-21T05:17:50.423Z,7.28
2023-05-21T05:20:36.267Z,6.45
2023-05-21T05:23:21.719Z,8.40
2023-05-21T05:26:07.134Z,7.82
2023-05-21T05:28:53.071Z,9.32
2023-05-21T05:31:38.474Z,8.85
2023-05-21T05:34:23.864Z,5.95
2023-05-21T05:37:09.331Z,8.98
2023-05-21T05:39:54.807Z,6.60
2023-05-21T05:42:40.319Z,7.45
2023-05-21T05:45:30.451Z,6.22
2023-05-21T05:48:16.758Z,7.70
2023-05-21T05:51:02.908Z,6.93
2023-05-21T05:53:49.900Z,7.38
2023-05-21T05:56:35.289Z,7.93
2023-05-21T05:59:22.951Z,8.50
2023-05-21T06:02:09.660Z,5.38
2023-05-21T06:04:55.142Z,11.10
2023-05-21T06:07:40.682Z,9.88
2023-05-21T06:10:26.233Z,7.00
2023-05-21T06:13:11.524Z,6.57
2023-05-21T06:15:56.837Z,7.10
2023-05-21T06:18:42.672Z,8.02
2023-05-21T06:21:28.514Z,7.38
2023-05-21T06:24:13.870Z,9.32
2023-05-21T06:26:59.221Z,9.52
2023-05-21T06:29:44.544Z,10.30
2023-05-21T06:32:30.032Z,8.77
2023-05-21T06:35:15.383Z,8.40
2023-05-21T06:38:00.940Z,10.43
2023-05-21T06:40:47.805Z,7.80
2023-05-21T06:43:42.865Z,8.15
2023-05-21T06:47:06.234Z,9.50
2023-05-21T06:49:51.630Z,9.43
2023-05-21T06:52:37.256Z,7.75
2023-05-21T06:55:22.957Z,8.60
2023-05-21T06:58:31.202Z,11.98
2023-05-21T07:01:17.018Z,8.43
2023-05-21T07:04:02.784Z,9.50
2023-05-21T07:06:49.119Z,8.80
2023-05-21T07:09:34.507Z,7.47
2023-05-21T07:12:20.390Z,8.68
2023-05-21T07:15:06.614Z,12.55
2023-05-21T07:17:53.014Z,8.57
2023-05-21T07:20:38.294Z,8.32
2023-05-21T07:23:25.234Z,10.30
2023-05-21T07:26:11.462Z,8.45
2023-05-21T07:28:57.057Z,9.82
2023-05-21T07:31:42.477Z,8.10
2023-05-21T07:34:29.935Z,10.20
2023-05-21T07:37:15.600Z,8.35
2023-05-21T07:40:01.043Z,9.63
2023-05-21T07:42:48.518Z,11.38
2023-05-21T07:45:37.886Z,10.32
2023-05-21T07:48:23.806Z,10.27
2023-05-21T07:51:15.651Z,10.40
2023-05-21T07:54:01.390Z,10.88
2023-05-21T07:56:51.739Z,10.55
2023-05-21T08:00:00.600Z,9.82
2023-05-21T08:02:47.918Z,12.05
2023-05-21T08:05:34.148Z,9.90
2023-05-21T08:08:20.330Z,8.35
2023-05-21T08:11:05.970Z,10.38
2023-05-21T08:13:53.057Z,9.95
2023-05-21T08:16:39.599Z,10.77
2023-05-21T08:19:25.398Z,10.23
2023-05-21T08:22:11.358Z,9.55
2023-05-21T08:25:00.696Z,10.63
2023-05-21T08:27:46.008Z,9.57
2023-05-21T08:30:32.406Z,10.43
2023-05-21T08:33:20.828Z,8.50
2023-05-21T08:36:07.466Z,9.45
2023-05-21T08:38:59.708Z,9.60
2023-05-21T08:44:48.466Z,11.27
2023-05-21T08:47:36.539Z,8.52
2023-05-21T08:50:26.551Z,10.02
2023-05-21T08:53:26.692Z,9.68
2023-05-21T08:56:15.303Z,9.15
2023-05-21T08:59:05.587Z,9.95
2023-05-21T09:01:55.259Z,10.90
2023-05-21T09:04:49.592Z,10.70
2023-05-21T09:07:43.944Z,9.32
2023-05-21T09:10:42.333Z,7.90
2023-05-21T09:13:28.900Z,8.38
2023-05-21T09:16:14.840Z,8.35
2023-05-21T09:19:04.457Z,9.10
2023-05-21T09:21:52.943Z,8.43
2023-05-21T09:24:41.881Z,10.75
2023-05-21T09:27:27.690Z,8.32
2023-05-21T09:30:15.085Z,6.65
2023-05-21T09:33:01.562Z,7.72
2023-05-21T09:35:47.307Z,7.93
2023-05-21T09:38:34.926Z,7.53
2023-05-21T09:41:30.777Z,9.25
2023-05-21T09:44:16.479Z,8.27
2023-05-21T09:47:02.286Z,7.80
2023-05-21T09:49:49.055Z,7.65
2023-05-21T09:52:37.209Z,8.52
2023-05-21T09:55:23.750Z,9.80
2023-05-21T09:58:10.799Z,8.88
2023-05-21T10:00:56.540Z,8.15
2023-05-21T10:03:46.070Z,7.65
2023-05-21T10:06:33.783Z,7.65
2023-05-21T10:09:20.210Z,8.63
2023-05-21T10:12:06.209Z,10.98
2023-05-21T10:15:04.143Z,9.52
2023-05-21T10:17:49.877Z,7.25
2023-05-21T10:20:36.306Z,9.38
2023-05-21T10:23:23.577Z,8.43
2023-05-21T10:26:10.180Z,8.40
2023-05-21T10:28:57.457Z,9.82
2023-05-21T10:31:46.528Z,10.23
2023-05-21T10:34:32.897Z,8.82
2023-05-21T10:37:18.859Z,11.25
2023-05-21T10:40:04.927Z,10.18
2023-05-21T10:43:26.030Z,9.77
2023-05-21T10:46:20.613Z,12.95
2023-05-21T10:49:51.479Z,10.13
2023-05-21T10:53:04.797Z,10.70
2023-05-21T10:56:06.670Z,9.75
2023-05-21T10:59:31.560Z,8.35
2023-05-21T11:02:19.358Z,10.63
2023-05-21T11:05:05.329Z,13.95
2023-05-21T11:07:56.300Z,8.57
2023-05-21T11:10:44.326Z,9.53
2023-05-21T11:13:51.858Z,10.45
2023-05-21T11:16:37.580Z,8.80
2023-05-21T11:19:34.056Z,10.52
2023-05-21T11:22:20.058Z,8.52
2023-05-21T11:25:06.470Z,8.15
2023-05-21T11:27:53.638Z,9.57
2023-05-21T11:30:41.018Z,10.30
2023-05-21T11:33:26.843Z,9.15
2023-05-21T11:36:13.472Z,8.85
2023-05-21T11:39:17.634Z,10.57
2023-05-21T11:42:04.701Z,8.90
2023-05-21T11:44:50.318Z,10.23
2023-05-21T11:47:36.542Z,10.70
2023-05-21T11:50:22.100Z,11.77
2023-05-21T11:53:08.960Z,7.20
2023-05-21T11:55:57.371Z,9.52
2023-05-21T11:58:43.094Z,9.68
2023-05-21T12:01:31.095Z,10.25
2023-05-21T12:04:16.937Z,11.65
2023-05-21T12:07:08.780Z,9.90
2023-05-21T12:12:53.996Z,14.00
2023-05-21T12:15:40.874Z,9.70
2023-05-21T12:18:26.611Z,9.38
2023-05-21T12:21:12.742Z,10.75
2023-05-21T12:23:58.415Z,8.65
2023-05-21T12:26:45.884Z,9.65
2023-05-21T12:29:32.057Z,8.35
2023-05-21T12:32:17.573Z,9.68
2023-05-21T12:35:03.166Z,14.90
2023-05-21T12:37:50.579Z,10.95
2023-05-21T12:40:38.384Z,9.38
2023-05-21T12:43:24.558Z,10.20
2023-05-21T12:46:14.959Z,8.23
2023-05-21T12:49:00.318Z,10.57
2023-05-21T12:51:45.846Z,9.73
2023-05-21T12:54:33.499Z,7.72
2023-05-21T12:57:21.136Z,9.25
2023-05-21T13:00:11.132Z,8.20
2023-05-21T13:02:59.558Z,8.95
2023-05-21T13:05:44.890Z,8.65
2023-05-21T13:08:30.150Z,9.85
2023-05-21T13:11:15.395Z,9.15
2023-05-21T13:14:00.788Z,7.82
2023-05-21T13:16:47.273Z,11.82
2023-05-21T13:19:32.855Z,7.72
2023-05-21T13:22:18.121Z,8.93
2023-05-21T13:25:03.652Z,8.23
2023-05-21T13:27:50.653Z,11.20
2023-05-21T13:30:36.494Z,10.02
2023-05-21T13:33:22.348Z,9.05
2023-05-21T13:36:07.623Z,10.23
2023-05-21T13:38:53.055Z,13.27
2023-05-21T13:41:38.524Z,9.55
2023-05-21T13:44:23.828Z,10.02
2023-05-21T13:47:10.470Z,8.23
2023-05-21T13:49:56.154Z,8.57
2023-05-21T13:52:41.653Z,8.43
2023-05-21T13:55:28.052Z,10.23
2023-05-21T13:58:13.632Z,14.55
2023-05-21T14:00:59.122Z,5.55
2023-05-21T14:03:44.409Z,8.25
2023-05-21T14:06:30.835Z,7.82
2023-05-21T14:09:16.430Z,9.13
2023-05-21T14:12:01.799Z,7.78
2023-05-21T14:14:49.596Z,6.65
2023-05-21T14:17:35.125Z,9.07
2023-05-21T14:20:20.337Z,9.98
2023-05-21T14:23:05.919Z,8.15
2023-05-21T14:25:51.235Z,9.50
2023-05-21T14:28:36.908Z,8.02
2023-05-21T14:31:23.344Z,9.55
2023-05-21T14:34:08.836Z,8.75
2023-05-21T14:36:54.164Z,9.18
2023-05-21T14:39:39.612Z,8.85
2023-05-21T14:42:25.410Z,7.63
2023-05-21T14:45:18.993Z,10.05
2023-05-21T14:48:11.736Z,8.32
2023-05-21T14:50:57.334Z,8.38
2023-05-21T14:53:42.565Z,10.02
2023-05-21T14:56:28.105Z,8.93
2023-05-21T14:59:14.253Z,9.68
2023-05-21T15:01:59.344Z,9.77
2023-05-21T15:04:44.680Z,10.02
2023-05-21T15:07:30.080Z,9.98
2023-05-21T15:10:17.242Z,12.38
2023-05-21T15:13:04.077Z,8.40
2023-05-21T15:15:49.738Z,7.22
2023-05-21T15:18:35.310Z,7.63
2023-05-21T15:21:20.836Z,12.35
2023-05-21T15:24:06.468Z,7.80
2023-05-21T15:26:51.907Z,7.63
2023-05-21T15:29:37.635Z,8.20
2023-05-21T15:32:23.024Z,10.30
2023-05-21T15:35:08.871Z,10.90
2023-05-21T15:37:54.129Z,8.02
2023-05-21T15:40:43.172Z,9.32
2023-05-21T15:43:29.000Z,9.13
2023-05-21T15:46:14.345Z,13.48
2023-05-21T15:48:59.747Z,9.07
2023-05-21T15:51:46.794Z,9.80
2023-05-21T15:54:32.543Z,11.48
2023-05-21T15:57:18.011Z,8.15
2023-05-21T16:00:04.990Z,10.77
2023-05-21T16:02:54.351Z,9.85
2023-05-21T16:05:39.725Z,10.45
2023-05-21T16:08:24.994Z,8.52
2023-05-21T16:11:10.425Z,8.55
2023-05-21T16:13:56.134Z,9.15
2023-05-21T16:16:41.213Z,7.93
2023-05-21T16:19:26.728Z,10.15
2023-05-21T16:22:11.864Z,11.02
2023-05-21T16:24:57.383Z,7.30
2023-05-21T16:27:42.661Z,12.30
2023-05-21T16:30:28.183Z,9.93
2023-05-21T16:33:13.733Z,14.55
2023-05-21T16:35:59.198Z,10.07
2023-05-21T16:38:44.801Z,12.38
2023-05-21T16:41:30.204Z,11.02
2023-05-21T16:44:15.689Z,9.88
2023-05-21T16:47:01.954Z,13.07
2023-05-21T16:49:47.361Z,11.13
2023-05-21T16:52:32.853Z,11.68
2023-05-21T16:55:18.054Z,11.93
2023-05-21T16:58:05.487Z,13.60
2023-05-21T17:00:51.036Z,10.70
2023-05-21T17:03:37.050Z,11.82
2023-05-21T17:06:23.408Z,11.65
2023-05-21T17:09:08.562Z,11.93
2023-05-21T17:11:53.759Z,14.75
2023-05-21T17:14:39.756Z,11.73
2023-05-21T17:17:25.333Z,10.75
2023-05-21T17:20:11.646Z,10.02
2023-05-21T17:22:57.035Z,13.85
2023-05-21T17:25:42.469Z,13.60
2023-05-21T17:28:27.874Z,10.68
2023-05-21T17:31:14.063Z,11.75
2023-05-21T17:34:00.232Z,11.73
2023-05-21T17:36:45.682Z,13.07
2023-05-21T17:39:31.116Z,12.52
2023-05-21T17:42:17.415Z,14.48
2023-05-21T17:45:02.978Z,13.45
2023-05-21T17:47:48.436Z,12.32
2023-05-21T17:50:34.192Z,14.18
2023-05-21T17:53:19.947Z,13.23
2023-05-21T17:56:06.257Z,14.13
2023-05-21T17:58:51.702Z,11.95
2023-05-21T18:01:39.622Z,13.30
2023-05-21T18:04:25.188Z,11.18
2023-05-21T18:07:10.644Z,13.90
2023-05-21T18:09:55.930Z,14.93
2023-05-21T18:12:41.482Z,13.43
2023-05-21T18:15:26.927Z,15.40
2023-05-21T18:18:19.775Z,12.15
2023-05-21T18:21:06.483Z,14.88
2023-05-21T18:23:51.934Z,10.80
2023-05-21T18:26:37.538Z,14.65
2023-05-21T18:29:22.966Z,13.73
2023-05-21T18:32:09.011Z,14.60
2023-05-21T18:34:54.435Z,15.55
2023-05-21T18:37:42.001Z,16.20
2023-05-21T18:40:30.724Z,14.23
2023-05-21T18:43:17.662Z,15.23
2023-05-21T18:46:02.740Z,18.30
2023-05-21T18:48:48.724Z,13.52
2023-05-21T18:51:34.029Z,13.98
2023-05-21T18:54:19.361Z,17.02
2023-05-21T18:57:04.782Z,16.30
2023-05-21T18:59:50.269Z,15.20
2023-05-21T19:02:36.941Z,15.95
2023-05-21T19:05:22.714Z,13.90
2023-05-21T19:08:07.907Z,16.83
2023-05-21T19:10:53.198Z,14.52
2023-05-21T19:13:38.431Z,12.50
2023-05-21T19:16:23.706Z,15.35
2023-05-21T19:19:09.207Z,15.63
2023-05-21T19:21:54.581Z,14.23
2023-05-21T19:24:41.755Z,12.70
2023-05-21T19:27:29.228Z,13.75
2023-05-21T19:30:14.332Z,14.57
2023-05-21T19:32:59.860Z,12.77
2023-05-21T19:35:45.310Z,14.13
2023-05-21T19:38:30.579Z,15.45
2023-05-21T19:41:17.360Z,15.23
2023-05-21T19:44:02.571Z,15.45
2023-05-21T19:46:49.782Z,15.48
2023-05-21T19:49:35.130Z,15.32
2023-05-21T19:52:20.453Z,22.08
2023-05-21T19:55:07.324Z,14.93
2023-05-21T19:57:52.395Z,16.05
2023-05-21T20:00:39.131Z,13.43
2023-05-21T20:03:26.140Z,18.42
2023-05-21T20:06:12.179Z,16.30
2023-05-21T20:08:57.737Z,14.85
2023-05-21T20:11:43.379Z,18.10
2023-05-21T20:14:28.879Z,17.58
2023-05-21T20:17:14.709Z,17.58
2023-05-21T20:20:01.275Z,17.83
2023-05-21T20:22:46.788Z,17.50
2023-05-21T20:25:32.246Z,17.77
2023-05-21T20:28:19.103Z,18.05
2023-05-21T20:31:05.936Z,15.55
2023-05-21T20:33:52.241Z,15.35
2023-05-21T20:36:37.854Z,14.73
2023-05-21T20:39:23.458Z,19.00
2023-05-21T20:42:10.664Z,16.70
2023-05-21T20:44:58.752Z,14.15
2023-05-21T20:47:44.785Z,14.70
2023-05-21T20:50:30.171Z,18.75
2023-05-21T20:53:15.733Z,18.58
2023-05-21T20:56:01.474Z,17.60
2023-05-21T20:58:50.511Z,17.23
2023-05-21T21:01:37.790Z,16.85
2023-05-21T21:04:24.543Z,14.63
2023-05-21T21:07:11.772Z,17.55
2023-05-21T21:09:57.329Z,18.30
2023-05-21T21:12:42.525Z,12.93
2023-05-21T21:15:27.850Z,18.92
2023-05-21T21:18:13.177Z,19.55
2023-05-21T21:20:58.849Z,17.92
2023-05-21T21:23:44.051Z,19.05
2023-05-21T21:26:29.450Z,19.15
2023-05-21T21:29:14.780Z,19.08
2023-05-21T21:32:00.241Z,18.85
2023-05-21T21:34:45.485Z,19.17
2023-05-21T21:37:30.945Z,16.55
2023-05-21T21:40:16.493Z,15.32
2023-05-21T21:43:01.790Z,17.98
2023-05-21T21:45:47.208Z,20.85
2023-05-21T21:48:32.834Z,18.92
2023-05-21T21:51:18.242Z,17.63
2023-05-21T21:54:03.966Z,17.88
2023-05-21T21:56:49.595Z,17.83
2023-05-21T21:59:38.270Z,20.80
2023-05-21T22:02:23.897Z,21.88
2023-05-21T22:05:09.245Z,23.83
2023-05-21T22:07:54.837Z,21.95
2023-05-21T22:10:40.464Z,19.58
2023-05-21T22:13:28.523Z,21.50
2023-05-21T22:16:15.056Z,18.40
2023-05-21T22:19:01.257Z,21.23
2023-05-21T22:21:47.197Z,21.83
2023-05-21T22:24:33.470Z,19.50
2023-05-21T22:27:18.841Z,20.27
2023-05-21T22:30:05.209Z,23.92
2023-05-21T22:32:51.473Z,17.95
2023-05-21T22:35:37.230Z,20.80
2023-05-21T22:38:22.544Z,24.08
2023-05-21T22:41:08.544Z,25.10
2023-05-21T22:43:53.987Z,17.98
2023-05-21T22:46:42.172Z,21.90
2023-05-21T22:49:27.887Z,22.13
2023-05-21T22:52:14.452Z,18.08
2023-05-21T22:55:00.577Z,16.35
2023-05-21T22:57:45.831Z,15.20
2023-05-21T23:00:31.461Z,20.63
2023-05-21T23:03:17.286Z,22.80
2023-05-21T23:06:02.867Z,21.00
2023-05-21T23:08:48.371Z,27.52
2023-05-21T23:11:33.752Z,25.05
2023-05-21T23:14:19.046Z,26.67
2023-05-21T23:17:05.614Z,22.58
2023-05-21T23:19:52.299Z,25.60
2023-05-21T23:22:37.948Z,22.73
2023-05-21T23:25:23.363Z,23.55
2023-05-21T23:28:08.793Z,28.50
2023-05-21T23:30:54.248Z,22.52
2023-05-21T23:33:39.540Z,26.08
2023-05-21T23:36:44.173Z,21.85
2023-05-21T23:39:29.727Z,20.10
2023-05-21T23:42:17.853Z,20.60
2023-05-21T23:45:03.578Z,22.08
2023-05-21T23:47:49.034Z,20.40
2023-05-21T23:50:34.346Z,25.05
2023-05-21T23:53:20.008Z,20.55
2023-05-21T23:56:05.626Z,16.95
2023-05-21T23:58:51.646Z,15.93
